セブ の空港の天気 - METARとTAF

マクタン・セブ国際空港 ( RPVM / CEB ) - フィリピン セブ / ラプ=ラプ
飛行場実況気象(Metar)
観測時間09/26 17:00 PHT (09/26 09:00 UTC)
風向・風速南南西 2m/s
視程10km以上
天気現象
少しの雲 雲底高度 550m
全天を覆う雲 雲底高度 3050m
気温29℃
湿度74%
気圧1007hPa
METARRPVM 260900Z 20004KT 9999 FEW018CB OVC100 29/24 Q1007 RMK A2974 CB N/SW/W
過去の天気等 Google飛行場航空写真 Wunderground天気予報

過去48時間のMETAR

飛行場予報(TAF)
発表時間: 9/26 13:00 PHT (9/26 05:00 UTC)
予報対象時間: 26日14時 PHT ~ 27日20時 PHT
風向・風速南西 3m/s
視程10km以上
少しの雲 雲底高度 610m
全天の8割程度の雲 雲底高度 9140m
26日14時 PHT ~ 26日20時 PHT に一時的に
風向・風速南西 2m/s
少しの積乱雲 雲底高度 550m
全天の8割程度の雲 雲底高度 9140m
26日20時 PHT ~ 27日2時 PHT に一時的に
風向・風速南南西 2m/s
少しの積乱雲 雲底高度 550m
全天の4割程度の雲 雲底高度 9140m
TAF RPVM 260500Z 2606/2712 22005KT 9999 FEW020 BKN300
TEMPO 2606/2612 23004KT FEW018CB BKN300
TEMPO 2612/2618 21003KT FEW018CB SCT300